sensor_id;sensor_type;location;lat;lon;timestamp;temperature;humidity
23813;DHT22;12087;45.190;5.688;2023-07-24T00:03:24;26.40;89.30
23813;DHT22;12087;45.190;5.688;2023-07-24T00:08:46;26.30;89.60
23813;DHT22;12087;45.190;5.688;2023-07-24T00:14:08;26.30;90.30
23813;DHT22;12087;45.190;5.688;2023-07-24T00:19:32;26.30;90.80
23813;DHT22;12087;45.190;5.688;2023-07-24T00:24:54;26.20;91.40
23813;DHT22;12087;45.190;5.688;2023-07-24T00:30:17;26.20;91.80
23813;DHT22;12087;45.190;5.688;2023-07-24T00:35:40;26.10;92.20
23813;DHT22;12087;45.190;5.688;2023-07-24T00:41:03;26.00;92.20
23813;DHT22;12087;45.190;5.688;2023-07-24T00:46:25;25.90;92.10
23813;DHT22;12087;45.190;5.688;2023-07-24T00:51:49;25.90;92.40
23813;DHT22;12087;45.190;5.688;2023-07-24T00:57:11;25.80;92.90
23813;DHT22;12087;45.190;5.688;2023-07-24T01:02:34;25.70;93.00
23813;DHT22;12087;45.190;5.688;2023-07-24T01:07:58;25.80;93.10
23813;DHT22;12087;45.190;5.688;2023-07-24T01:13:25;25.70;93.20
23813;DHT22;12087;45.190;5.688;2023-07-24T01:18:48;25.70;92.70
23813;DHT22;12087;45.190;5.688;2023-07-24T01:24:24;25.70;92.70
23813;DHT22;12087;45.190;5.688;2023-07-24T01:29:51;25.60;93.20
23813;DHT22;12087;45.190;5.688;2023-07-24T01:35:13;25.60;93.30
23813;DHT22;12087;45.190;5.688;2023-07-24T01:40:38;25.60;93.50
23813;DHT22;12087;45.190;5.688;2023-07-24T01:46:01;25.60;93.70
23813;DHT22;12087;45.190;5.688;2023-07-24T01:51:23;25.50;93.00
23813;DHT22;12087;45.190;5.688;2023-07-24T01:56:47;25.50;92.80
23813;DHT22;12087;45.190;5.688;2023-07-24T02:02:18;25.50;94.10
23813;DHT22;12087;45.190;5.688;2023-07-24T02:07:40;25.30;96.30
23813;DHT22;12087;45.190;5.688;2023-07-24T02:13:02;25.30;96.60
23813;DHT22;12087;45.190;5.688;2023-07-24T02:18:30;25.40;95.10
23813;DHT22;12087;45.190;5.688;2023-07-24T02:23:53;25.20;99.30
23813;DHT22;12087;45.190;5.688;2023-07-24T02:29:17;24.60;99.90
23813;DHT22;12087;45.190;5.688;2023-07-24T02:34:41;24.30;99.90
23813;DHT22;12087;45.190;5.688;2023-07-24T02:40:06;24.00;99.90
23813;DHT22;12087;45.190;5.688;2023-07-24T02:45:28;23.70;99.90
23813;DHT22;12087;45.190;5.688;2023-07-24T02:50:52;23.50;99.90
23813;DHT22;12087;45.190;5.688;2023-07-24T02:56:14;23.30;99.90
23813;DHT22;12087;45.190;5.688;2023-07-24T03:01:37;23.10;99.90
23813;DHT22;12087;45.190;5.688;2023-07-24T03:07:00;23.00;99.90
23813;DHT22;12087;45.190;5.688;2023-07-24T03:12:22;23.00;99.90
23813;DHT22;12087;45.190;5.688;2023-07-24T03:17:45;22.90;99.90
23813;DHT22;12087;45.190;5.688;2023-07-24T03:23:09;22.90;99.90
23813;DHT22;12087;45.190;5.688;2023-07-24T03:28:31;22.90;99.90
23813;DHT22;12087;45.190;5.688;2023-07-24T03:33:56;22.80;99.90
23813;DHT22;12087;45.190;5.688;2023-07-24T03:39:21;22.70;99.90
23813;DHT22;12087;45.190;5.688;2023-07-24T03:44:45;22.70;99.90
23813;DHT22;12087;45.190;5.688;2023-07-24T03:50:08;22.70;99.90
23813;DHT22;12087;45.190;5.688;2023-07-24T03:55:32;22.60;99.90
23813;DHT22;12087;45.190;5.688;2023-07-24T04:00:55;22.40;99.90
23813;DHT22;12087;45.190;5.688;2023-07-24T04:06:19;22.30;99.90
23813;DHT22;12087;45.190;5.688;2023-07-24T04:11:43;22.40;99.90
23813;DHT22;12087;45.190;5.688;2023-07-24T04:17:06;22.50;99.90
23813;DHT22;12087;45.190;5.688;2023-07-24T04:22:33;22.40;99.90
23813;DHT22;12087;45.190;5.688;2023-07-24T04:28:12;22.30;99.90
23813;DHT22;12087;45.190;5.688;2023-07-24T04:33:36;22.30;99.90
23813;DHT22;12087;45.190;5.688;2023-07-24T04:38:58;22.20;99.90
23813;DHT22;12087;45.190;5.688;2023-07-24T04:44:22;21.90;99.90
23813;DHT22;12087;45.190;5.688;2023-07-24T04:49:44;21.90;99.90
23813;DHT22;12087;45.190;5.688;2023-07-24T04:55:06;21.80;99.90
23813;DHT22;12087;45.190;5.688;2023-07-24T05:00:30;21.80;99.90
23813;DHT22;12087;45.190;5.688;2023-07-24T05:05:54;21.80;99.90
23813;DHT22;12087;45.190;5.688;2023-07-24T05:11:17;21.80;99.90
23813;DHT22;12087;45.190;5.688;2023-07-24T05:16:44;21.70;99.90
23813;DHT22;12087;45.190;5.688;2023-07-24T05:22:07;21.70;99.90
23813;DHT22;12087;45.190;5.688;2023-07-24T05:27:32;21.70;99.90
23813;DHT22;12087;45.190;5.688;2023-07-24T05:33:01;21.70;99.90
23813;DHT22;12087;45.190;5.688;2023-07-24T05:38:24;21.70;99.90
23813;DHT22;12087;45.190;5.688;2023-07-24T05:43:48;21.70;99.90
23813;DHT22;12087;45.190;5.688;2023-07-24T05:49:12;21.70;99.90
23813;DHT22;12087;45.190;5.688;2023-07-24T05:54:34;21.70;99.90
23813;DHT22;12087;45.190;5.688;2023-07-24T05:59:57;21.70;99.90
23813;DHT22;12087;45.190;5.688;2023-07-24T06:05:21;21.60;99.90
23813;DHT22;12087;45.190;5.688;2023-07-24T06:10:46;21.50;99.90
23813;DHT22;12087;45.190;5.688;2023-07-24T06:16:08;21.50;99.90
23813;DHT22;12087;45.190;5.688;2023-07-24T06:21:32;21.40;99.90
23813;DHT22;12087;45.190;5.688;2023-07-24T06:26:54;21.50;99.90
23813;DHT22;12087;45.190;5.688;2023-07-24T06:32:17;21.60;99.90
23813;DHT22;12087;45.190;5.688;2023-07-24T06:37:40;21.70;99.90
23813;DHT22;12087;45.190;5.688;2023-07-24T06:43:03;21.70;99.90
23813;DHT22;12087;45.190;5.688;2023-07-24T06:48:26;21.70;99.90
23813;DHT22;12087;45.190;5.688;2023-07-24T06:53:49;21.70;99.90
23813;DHT22;12087;45.190;5.688;2023-07-24T06:59:12;21.80;99.90
23813;DHT22;12087;45.190;5.688;2023-07-24T07:04:34;21.80;99.90
23813;DHT22;12087;45.190;5.688;2023-07-24T07:09:58;21.80;99.90
23813;DHT22;12087;45.190;5.688;2023-07-24T07:15:20;21.90;99.90
23813;DHT22;12087;45.190;5.688;2023-07-24T07:20:45;22.00;99.90
23813;DHT22;12087;45.190;5.688;2023-07-24T07:26:09;22.10;99.90
23813;DHT22;12087;45.190;5.688;2023-07-24T07:31:31;22.10;99.90
23813;DHT22;12087;45.190;5.688;2023-07-24T07:36:53;22.20;99.90
23813;DHT22;12087;45.190;5.688;2023-07-24T07:42:17;22.10;99.90
23813;DHT22;12087;45.190;5.688;2023-07-24T07:47:39;22.10;99.90
23813;DHT22;12087;45.190;5.688;2023-07-24T07:53:01;22.30;99.90
23813;DHT22;12087;45.190;5.688;2023-07-24T07:58:25;22.40;99.90
23813;DHT22;12087;45.190;5.688;2023-07-24T08:03:47;22.50;99.90
23813;DHT22;12087;45.190;5.688;2023-07-24T08:09:09;22.60;99.90
23813;DHT22;12087;45.190;5.688;2023-07-24T08:14:33;22.70;99.90
23813;DHT22;12087;45.190;5.688;2023-07-24T08:19:55;22.50;99.90
23813;DHT22;12087;45.190;5.688;2023-07-24T08:25:17;22.50;99.90
23813;DHT22;12087;45.190;5.688;2023-07-24T08:30:41;22.50;99.90
23813;DHT22;12087;45.190;5.688;2023-07-24T08:36:04;22.50;99.90
23813;DHT22;12087;45.190;5.688;2023-07-24T08:41:28;22.50;99.90
23813;DHT22;12087;45.190;5.688;2023-07-24T08:46:55;22.50;99.90
23813;DHT22;12087;45.190;5.688;2023-07-24T08:52:17;22.60;99.90
23813;DHT22;12087;45.190;5.688;2023-07-24T08:57:40;22.50;99.90
23813;DHT22;12087;45.190;5.688;2023-07-24T09:03:03;22.60;99.90
23813;DHT22;12087;45.190;5.688;2023-07-24T09:08:30;22.80;99.90
23813;DHT22;12087;45.190;5.688;2023-07-24T09:13:53;23.10;99.90
23813;DHT22;12087;45.190;5.688;2023-07-24T09:19:19;23.40;99.90
23813;DHT22;12087;45.190;5.688;2023-07-24T09:24:51;23.40;99.90
23813;DHT22;12087;45.190;5.688;2023-07-24T09:30:14;23.90;99.90
23813;DHT22;12087;45.190;5.688;2023-07-24T09:35:39;24.20;99.90
23813;DHT22;12087;45.190;5.688;2023-07-24T09:41:02;24.20;99.90
23813;DHT22;12087;45.190;5.688;2023-07-24T09:46:24;24.00;99.90
23813;DHT22;12087;45.190;5.688;2023-07-24T09:51:50;23.90;99.90
23813;DHT22;12087;45.190;5.688;2023-07-24T09:57:16;24.20;99.90
23813;DHT22;12087;45.190;5.688;2023-07-24T10:02:40;24.40;99.90
23813;DHT22;12087;45.190;5.688;2023-07-24T10:08:05;24.60;99.90
23813;DHT22;12087;45.190;5.688;2023-07-24T10:13:27;24.90;99.90
23813;DHT22;12087;45.190;5.688;2023-07-24T10:18:50;25.30;99.90
23813;DHT22;12087;45.190;5.688;2023-07-24T10:24:14;25.40;99.90
23813;DHT22;12087;45.190;5.688;2023-07-24T10:29:36;25.40;99.90
23813;DHT22;12087;45.190;5.688;2023-07-24T10:35:06;25.30;99.90
23813;DHT22;12087;45.190;5.688;2023-07-24T10:40:30;25.50;99.90
23813;DHT22;12087;45.190;5.688;2023-07-24T10:45:53;25.60;99.90
23813;DHT22;12087;45.190;5.688;2023-07-24T10:51:16;25.60;99.90
23813;DHT22;12087;45.190;5.688;2023-07-24T10:56:39;25.80;99.90
23813;DHT22;12087;45.190;5.688;2023-07-24T11:02:02;26.00;99.90
23813;DHT22;12087;45.190;5.688;2023-07-24T11:07:26;26.60;99.90
23813;DHT22;12087;45.190;5.688;2023-07-24T11:12:55;26.90;99.90
23813;DHT22;12087;45.190;5.688;2023-07-24T11:18:19;27.20;99.90
23813;DHT22;12087;45.190;5.688;2023-07-24T11:23:49;27.20;99.90
23813;DHT22;12087;45.190;5.688;2023-07-24T11:29:13;27.10;99.90
23813;DHT22;12087;45.190;5.688;2023-07-24T11:34:35;27.10;99.90
23813;DHT22;12087;45.190;5.688;2023-07-24T11:39:59;27.30;99.90
23813;DHT22;12087;45.190;5.688;2023-07-24T11:45:26;27.30;99.90
23813;DHT22;12087;45.190;5.688;2023-07-24T11:50:49;27.40;99.90
23813;DHT22;12087;45.190;5.688;2023-07-24T11:56:14;27.30;99.90
23813;DHT22;12087;45.190;5.688;2023-07-24T12:01:38;27.40;99.90
23813;DHT22;12087;45.190;5.688;2023-07-24T12:07:00;27.40;99.90
23813;DHT22;12087;45.190;5.688;2023-07-24T12:12:22;27.30;99.90
23813;DHT22;12087;45.190;5.688;2023-07-24T12:17:46;27.30;99.90
23813;DHT22;12087;45.190;5.688;2023-07-24T12:23:08;27.40;99.90
23813;DHT22;12087;45.190;5.688;2023-07-24T12:28:31;27.40;99.90
23813;DHT22;12087;45.190;5.688;2023-07-24T12:33:54;27.50;99.90
23813;DHT22;12087;45.190;5.688;2023-07-24T12:39:17;27.60;99.90
23813;DHT22;12087;45.190;5.688;2023-07-24T12:44:39;28.10;99.90
23813;DHT22;12087;45.190;5.688;2023-07-24T12:50:03;28.20;99.90
23813;DHT22;12087;45.190;5.688;2023-07-24T12:55:25;28.20;99.90
23813;DHT22;12087;45.190;5.688;2023-07-24T13:00:48;28.20;99.90
23813;DHT22;12087;45.190;5.688;2023-07-24T13:06:11;28.30;99.90
23813;DHT22;12087;45.190;5.688;2023-07-24T13:11:34;28.30;99.90
23813;DHT22;12087;45.190;5.688;2023-07-24T13:16:56;28.00;99.90
23813;DHT22;12087;45.190;5.688;2023-07-24T13:22:20;27.70;99.90
23813;DHT22;12087;45.190;5.688;2023-07-24T13:27:42;27.80;99.90
23813;DHT22;12087;45.190;5.688;2023-07-24T13:33:04;28.20;99.90
23813;DHT22;12087;45.190;5.688;2023-07-24T13:38:28;28.30;99.90
23813;DHT22;12087;45.190;5.688;2023-07-24T13:43:50;28.70;99.90
23813;DHT22;12087;45.190;5.688;2023-07-24T13:49:12;29.40;99.90
23813;DHT22;12087;45.190;5.688;2023-07-24T13:54:36;29.80;99.90
23813;DHT22;12087;45.190;5.688;2023-07-24T13:59:58;30.10;99.90
23813;DHT22;12087;45.190;5.688;2023-07-24T14:05:21;30.10;99.90
23813;DHT22;12087;45.190;5.688;2023-07-24T14:10:44;30.40;99.90
23813;DHT22;12087;45.190;5.688;2023-07-24T14:16:06;30.20;99.90
23813;DHT22;12087;45.190;5.688;2023-07-24T14:21:29;30.10;99.90
23813;DHT22;12087;45.190;5.688;2023-07-24T14:26:52;30.10;99.90
23813;DHT22;12087;45.190;5.688;2023-07-24T14:32:15;30.10;99.90
23813;DHT22;12087;45.190;5.688;2023-07-24T14:37:37;30.30;99.90
23813;DHT22;12087;45.190;5.688;2023-07-24T14:43:00;30.50;99.90
23813;DHT22;12087;45.190;5.688;2023-07-24T14:48:23;30.60;99.90
23813;DHT22;12087;45.190;5.688;2023-07-24T14:53:45;30.50;99.90
23813;DHT22;12087;45.190;5.688;2023-07-24T14:59:09;30.40;99.90
23813;DHT22;12087;45.190;5.688;2023-07-24T15:04:31;30.20;99.90
23813;DHT22;12087;45.190;5.688;2023-07-24T15:09:55;30.00;99.90
23813;DHT22;12087;45.190;5.688;2023-07-24T15:15:19;29.60;99.90
23813;DHT22;12087;45.190;5.688;2023-07-24T15:20:42;29.20;99.90
23813;DHT22;12087;45.190;5.688;2023-07-24T15:26:04;29.00;99.90
23813;DHT22;12087;45.190;5.688;2023-07-24T15:31:30;28.90;99.90
23813;DHT22;12087;45.190;5.688;2023-07-24T15:36:56;28.80;99.90
23813;DHT22;12087;45.190;5.688;2023-07-24T15:42:19;28.50;99.90
23813;DHT22;12087;45.190;5.688;2023-07-24T15:47:44;28.30;99.90
23813;DHT22;12087;45.190;5.688;2023-07-24T15:53:06;28.00;99.90
23813;DHT22;12087;45.190;5.688;2023-07-24T15:58:29;27.80;99.90
23813;DHT22;12087;45.190;5.688;2023-07-24T16:03:52;27.50;99.90
23813;DHT22;12087;45.190;5.688;2023-07-24T16:09:15;27.50;99.90
23813;DHT22;12087;45.190;5.688;2023-07-24T16:14:37;27.30;99.90
23813;DHT22;12087;45.190;5.688;2023-07-24T16:20:01;27.20;99.90
23813;DHT22;12087;45.190;5.688;2023-07-24T16:25:23;27.10;99.90
23813;DHT22;12087;45.190;5.688;2023-07-24T16:30:45;26.90;99.90
23813;DHT22;12087;45.190;5.688;2023-07-24T16:36:09;26.80;99.90
23813;DHT22;12087;45.190;5.688;2023-07-24T16:41:31;26.70;99.90
23813;DHT22;12087;45.190;5.688;2023-07-24T16:46:54;26.80;99.90
23813;DHT22;12087;45.190;5.688;2023-07-24T16:52:19;26.80;99.90
23813;DHT22;12087;45.190;5.688;2023-07-24T16:57:41;26.70;99.90
23813;DHT22;12087;45.190;5.688;2023-07-24T17:03:05;26.60;99.90
23813;DHT22;12087;45.190;5.688;2023-07-24T17:08:28;26.50;99.90
23813;DHT22;12087;45.190;5.688;2023-07-24T17:13:51;26.40;99.90
23813;DHT22;12087;45.190;5.688;2023-07-24T17:19:14;26.40;99.90
23813;DHT22;12087;45.190;5.688;2023-07-24T17:24:37;26.30;99.90
23813;DHT22;12087;45.190;5.688;2023-07-24T17:30:00;26.30;99.90
23813;DHT22;12087;45.190;5.688;2023-07-24T17:35:23;26.30;99.90
23813;DHT22;12087;45.190;5.688;2023-07-24T17:40:46;26.20;99.90
23813;DHT22;12087;45.190;5.688;2023-07-24T17:46:09;26.00;99.90
23813;DHT22;12087;45.190;5.688;2023-07-24T17:51:32;25.90;99.90
23813;DHT22;12087;45.190;5.688;2023-07-24T17:56:57;25.60;99.90
23813;DHT22;12087;45.190;5.688;2023-07-24T18:02:19;25.10;99.90
23813;DHT22;12087;45.190;5.688;2023-07-24T18:07:42;24.80;99.90
23813;DHT22;12087;45.190;5.688;2023-07-24T18:13:10;24.60;99.90
23813;DHT22;12087;45.190;5.688;2023-07-24T18:18:32;24.40;99.90
23813;DHT22;12087;45.190;5.688;2023-07-24T18:23:54;24.30;99.90
23813;DHT22;12087;45.190;5.688;2023-07-24T18:29:19;24.30;99.90
23813;DHT22;12087;45.190;5.688;2023-07-24T18:34:41;24.10;99.90
23813;DHT22;12087;45.190;5.688;2023-07-24T18:40:04;24.10;99.90
23813;DHT22;12087;45.190;5.688;2023-07-24T18:45:28;24.10;99.90
23813;DHT22;12087;45.190;5.688;2023-07-24T18:50:50;24.10;99.90
23813;DHT22;12087;45.190;5.688;2023-07-24T18:56:12;24.00;99.90
23813;DHT22;12087;45.190;5.688;2023-07-24T19:01:37;23.90;99.90
23813;DHT22;12087;45.190;5.688;2023-07-24T19:06:59;23.70;99.90
23813;DHT22;12087;45.190;5.688;2023-07-24T19:12:23;23.60;99.90
23813;DHT22;12087;45.190;5.688;2023-07-24T19:17:46;23.60;99.90
23813;DHT22;12087;45.190;5.688;2023-07-24T19:23:09;23.50;99.90
23813;DHT22;12087;45.190;5.688;2023-07-24T19:28:31;23.40;99.90
23813;DHT22;12087;45.190;5.688;2023-07-24T19:33:55;23.30;99.90
23813;DHT22;12087;45.190;5.688;2023-07-24T19:39:17;23.20;99.90
23813;DHT22;12087;45.190;5.688;2023-07-24T19:44:40;23.10;99.90
23813;DHT22;12087;45.190;5.688;2023-07-24T19:50:05;23.10;99.90
23813;DHT22;12087;45.190;5.688;2023-07-24T19:55:27;23.00;99.90
23813;DHT22;12087;45.190;5.688;2023-07-24T20:00:50;23.00;99.90
23813;DHT22;12087;45.190;5.688;2023-07-24T20:06:14;23.10;99.90
23813;DHT22;12087;45.190;5.688;2023-07-24T20:11:36;23.00;99.90
23813;DHT22;12087;45.190;5.688;2023-07-24T20:16:58;22.90;99.90
23813;DHT22;12087;45.190;5.688;2023-07-24T20:22:22;22.80;99.90
23813;DHT22;12087;45.190;5.688;2023-07-24T20:27:45;22.70;99.90
23813;DHT22;12087;45.190;5.688;2023-07-24T20:33:07;22.70;99.90
23813;DHT22;12087;45.190;5.688;2023-07-24T20:38:33;22.60;99.90
23813;DHT22;12087;45.190;5.688;2023-07-24T20:43:56;22.60;99.90
23813;DHT22;12087;45.190;5.688;2023-07-24T20:49:18;22.50;99.90
23813;DHT22;12087;45.190;5.688;2023-07-24T20:54:42;22.30;99.90
23813;DHT22;12087;45.190;5.688;2023-07-24T21:00:06;22.30;99.90
23813;DHT22;12087;45.190;5.688;2023-07-24T21:05:28;22.20;99.90
23813;DHT22;12087;45.190;5.688;2023-07-24T21:10:52;22.20;99.90
23813;DHT22;12087;45.190;5.688;2023-07-24T21:16:14;22.20;99.90
23813;DHT22;12087;45.190;5.688;2023-07-24T21:21:37;22.20;99.90
23813;DHT22;12087;45.190;5.688;2023-07-24T21:27:00;22.20;99.90
23813;DHT22;12087;45.190;5.688;2023-07-24T21:32:24;22.10;99.90
23813;DHT22;12087;45.190;5.688;2023-07-24T21:37:51;22.10;99.90
23813;DHT22;12087;45.190;5.688;2023-07-24T21:43:16;22.00;99.90
23813;DHT22;12087;45.190;5.688;2023-07-24T21:48:40;21.70;99.90
23813;DHT22;12087;45.190;5.688;2023-07-24T21:54:04;21.60;99.90
23813;DHT22;12087;45.190;5.688;2023-07-24T21:59:29;21.60;99.90
23813;DHT22;12087;45.190;5.688;2023-07-24T22:04:54;21.50;99.90
23813;DHT22;12087;45.190;5.688;2023-07-24T22:10:19;21.50;99.90
23813;DHT22;12087;45.190;5.688;2023-07-24T22:15:48;21.40;99.90
23813;DHT22;12087;45.190;5.688;2023-07-24T22:21:10;21.00;99.90
23813;DHT22;12087;45.190;5.688;2023-07-24T22:26:33;20.80;99.90
23813;DHT22;12087;45.190;5.688;2023-07-24T22:31:56;20.70;99.90
23813;DHT22;12087;45.190;5.688;2023-07-24T22:37:19;20.60;99.90
23813;DHT22;12087;45.190;5.688;2023-07-24T22:42:42;20.60;99.90
23813;DHT22;12087;45.190;5.688;2023-07-24T22:48:06;20.50;99.90
23813;DHT22;12087;45.190;5.688;2023-07-24T22:53:30;20.50;99.90
23813;DHT22;12087;45.190;5.688;2023-07-24T22:59:20;20.50;99.90
23813;DHT22;12087;45.190;5.688;2023-07-24T23:04:45;20.50;99.90
23813;DHT22;12087;45.190;5.688;2023-07-24T23:10:08;20.50;99.90
23813;DHT22;12087;45.190;5.688;2023-07-24T23:15:32;20.50;99.90
23813;DHT22;12087;45.190;5.688;2023-07-24T23:21:00;20.40;99.90
23813;DHT22;12087;45.190;5.688;2023-07-24T23:26:22;20.40;99.90
23813;DHT22;12087;45.190;5.688;2023-07-24T23:31:45;20.50;99.90
23813;DHT22;12087;45.190;5.688;2023-07-24T23:37:09;20.60;99.90
23813;DHT22;12087;45.190;5.688;2023-07-24T23:42:31;20.70;99.90
23813;DHT22;12087;45.190;5.688;2023-07-24T23:47:53;20.60;99.90
23813;DHT22;12087;45.190;5.688;2023-07-24T23:53:17;20.50;99.90
23813;DHT22;12087;45.190;5.688;2023-07-24T23:58:39;20.50;99.90
